Terminal Aerodrome Forecast
Issued by NWS

Home | Current Version | Previous Version | Text Only | Print | Product List | Glossary On
Versions: 1 2 3 4 5 6 7 8 9 10 11 12 13 14 15 16 17 18 19 20 21 22 23 24 25 26 27 28 29 30 31 32 33
000
FTUS44 KOUN 190527
TAFCSM
TAF
KCSM 190527Z 1906/2006 34033G41KT 5SM -SN BLSN OVC015
     FM190900 35030G39KT P6SM BKN025
     FM191400 34026G32KT P6SM SCT030 BKN250
     FM191800 35020G26KT P6SM SKC
     FM200000 35013KT P6SM SKC
     FM200300 36009KT P6SM SKC=

USA.gov is the U.S. government's official web portal to all federal, state and local government web resources and services.